Terminal Aerodrome Forecast
Issued by NWS

Home | Current Version | Previous Version | Graphics & Text | Print | Product List | Glossary On
Versions: 1 2 3 4 5 6 7 8 9 10 11 12 13 14 15
000
FTUS43 KMPX 180520
TAFRWF
TAF
KRWF 180520Z 1806/1906 36004KT P6SM SCT250
     FM181500 11011KT P6SM BKN150
     FM182300 12012G20KT 5SM RA VCTS OVC040CB
     FM190200 14014G22KT 4SM RA BR SCT008 OVC017=

USA.gov is the U.S. government's official web portal to all federal, state and local government web resources and services.